createdAt,value
2022-09-05T00:02:28.292Z,17.94
2022-09-05T00:05:07.542Z,17.86
2022-09-05T00:07:59.295Z,17.79
2022-09-05T00:10:44.818Z,17.68
2022-09-05T00:13:33.258Z,17.57
2022-09-05T00:16:13.830Z,17.54
2022-09-05T00:24:21.446Z,17.57
2022-09-05T00:24:33.149Z,17.51
2022-09-05T00:25:21.214Z,17.43
2022-09-05T00:27:58.650Z,17.43
2022-09-05T00:31:51.164Z,17.34
2022-09-05T00:33:32.042Z,17.41
2022-09-05T00:36:25.514Z,17.39
2022-09-05T00:38:59.776Z,17.42
2022-09-05T00:41:34.419Z,17.39
2022-09-05T00:44:04.267Z,17.35
2022-09-05T00:46:36.840Z,17.24
2022-09-05T00:49:17.458Z,17.27
2022-09-05T00:51:51.992Z,17.36
2022-09-05T00:54:40.897Z,17.26
2022-09-05T00:57:30.713Z,17.32
2022-09-05T01:00:17.086Z,17.26
2022-09-05T01:03:27.034Z,17.28
2022-09-05T01:06:16.533Z,17.28
2022-09-05T01:09:08.082Z,17.21
2022-09-05T01:11:48.525Z,17.22
2022-09-05T01:14:39.186Z,17.20
2022-09-05T01:17:23.655Z,17.22
2022-09-05T01:20:19.654Z,17.18
2022-09-05T01:23:23.650Z,17.24
2022-09-05T01:26:10.329Z,17.15
2022-09-05T01:29:17.126Z,17.12
2022-09-05T01:31:45.669Z,17.15
2022-09-05T01:34:31.302Z,17.20
2022-09-05T01:37:08.787Z,17.23
2022-09-05T01:40:16.119Z,17.19
2022-09-05T01:42:59.547Z,17.22
2022-09-05T01:45:44.538Z,17.22
2022-09-05T01:48:30.255Z,17.20
2022-09-05T01:51:28.816Z,17.10
2022-09-05T01:54:06.996Z,17.12
2022-09-05T01:56:54.003Z,17.10
2022-09-05T01:59:35.031Z,17.13
2022-09-05T02:02:25.316Z,17.11
2022-09-05T02:05:12.724Z,17.11
2022-09-05T02:08:03.394Z,17.12
2022-09-05T02:10:41.829Z,17.13
2022-09-05T02:13:23.165Z,17.07
2022-09-05T02:16:00.307Z,17.11
2022-09-05T02:18:46.643Z,17.08
2022-09-05T02:21:22.373Z,17.02
2022-09-05T02:24:03.100Z,16.95
2022-09-05T02:26:35.812Z,16.93
2022-09-05T02:29:12.696Z,16.96
2022-09-05T02:32:03.287Z,16.92
2022-09-05T02:34:46.071Z,16.88
2022-09-05T02:37:33.772Z,16.87
2022-09-05T02:45:16.589Z,16.95
2022-09-05T02:45:21.585Z,16.93
2022-09-05T02:46:09.975Z,16.91
2022-09-05T02:48:55.166Z,16.82
2022-09-05T02:56:55.183Z,16.75
2022-09-05T02:57:35.593Z,16.75
2022-09-05T02:58:06.431Z,16.71
2022-09-05T03:00:27.148Z,16.81
2022-09-05T03:03:13.715Z,16.81
2022-09-05T03:05:49.552Z,16.79
2022-09-05T03:08:34.474Z,16.72
2022-09-05T03:11:31.107Z,16.70
2022-09-05T03:14:43.511Z,16.73
2022-09-05T03:17:47.628Z,16.78
2022-09-05T03:20:45.628Z,16.81
2022-09-05T03:23:50.519Z,16.82
2022-09-05T03:26:38.255Z,16.82
2022-09-05T03:29:41.364Z,16.80
2022-09-05T03:32:41.956Z,16.74
2022-09-05T03:35:49.342Z,16.76
2022-09-05T03:38:52.412Z,16.66
2022-09-05T03:41:40.893Z,16.67
2022-09-05T03:44:33.645Z,16.65
2022-09-05T03:47:17.702Z,16.68
2022-09-05T03:57:07.181Z,16.61
2022-09-05T03:57:10.636Z,16.69
2022-09-05T03:57:14.290Z,16.57
2022-09-05T04:00:06.328Z,16.60
2022-09-05T04:08:11.352Z,16.54
2022-09-05T04:08:17.421Z,16.57
2022-09-05T04:08:38.637Z,16.50
2022-09-05T04:11:15.130Z,16.53
2022-09-05T04:13:51.416Z,16.54
2022-09-05T04:16:23.561Z,16.60
2022-09-05T04:18:55.255Z,16.58
2022-09-05T04:21:28.538Z,16.57
2022-09-05T04:24:05.350Z,16.60
2022-09-05T04:27:07.344Z,16.63
2022-09-05T04:29:49.816Z,16.60
2022-09-05T04:32:29.267Z,16.60
2022-09-05T04:35:11.770Z,16.61
2022-09-05T04:37:49.525Z,16.55
2022-09-05T04:40:59.907Z,16.66
2022-09-05T04:43:36.550Z,16.64
2022-09-05T04:46:23.027Z,16.60
2022-09-05T04:49:02.972Z,16.63
2022-09-05T04:52:22.855Z,16.65
2022-09-05T04:55:03.845Z,16.66
2022-09-05T04:57:39.706Z,16.71
2022-09-05T05:04:05.243Z,16.75
2022-09-05T05:06:13.496Z,16.82
2022-09-05T05:06:43.790Z,16.88
2022-09-05T05:08:59.004Z,16.97
2022-09-05T05:17:55.434Z,17.06
2022-09-05T05:18:07.635Z,17.08
2022-09-05T05:18:16.388Z,17.18
2022-09-05T05:20:42.727Z,17.28
2022-09-05T05:23:17.300Z,17.39
2022-09-05T05:25:51.788Z,17.38
2022-09-05T05:28:28.600Z,17.46
2022-09-05T05:31:01.520Z,17.53
2022-09-05T05:33:34.007Z,17.48
2022-09-05T05:36:07.986Z,17.41
2022-09-05T05:38:43.977Z,17.48
2022-09-05T05:41:20.412Z,17.51
2022-09-05T05:43:50.848Z,17.57
2022-09-05T05:46:30.507Z,17.56
2022-09-05T05:49:15.348Z,17.61
2022-09-05T05:52:02.510Z,17.65
2022-09-05T05:54:39.171Z,17.74
2022-09-05T05:57:33.032Z,17.77
2022-09-05T06:00:27.566Z,17.90
2022-09-05T06:03:29.018Z,18.05
2022-09-05T06:06:33.580Z,18.19
2022-09-05T06:14:54.960Z,18.36
2022-09-05T06:14:56.906Z,18.41
2022-09-05T06:16:23.204Z,18.36
2022-09-05T06:19:27.535Z,18.37
2022-09-05T06:22:41.410Z,18.36
2022-09-05T06:25:44.689Z,18.23
2022-09-05T06:28:26.024Z,18.24
2022-09-05T06:31:29.596Z,18.24
2022-09-05T06:34:12.980Z,18.17
2022-09-05T06:37:06.759Z,18.27
2022-09-05T06:39:54.406Z,18.30
2022-09-05T06:42:43.211Z,18.31
2022-09-05T06:45:41.715Z,18.30
2022-09-05T06:48:44.136Z,18.43
2022-09-05T06:51:30.501Z,18.44
2022-09-05T06:54:15.079Z,18.58
2022-09-05T06:56:57.965Z,18.73
2022-09-05T06:59:53.910Z,18.73
2022-09-05T07:03:00.024Z,18.67
2022-09-05T07:05:44.571Z,18.60
2022-09-05T07:08:34.156Z,18.71
2022-09-05T07:11:16.282Z,18.72
2022-09-05T07:14:00.710Z,18.75
2022-09-05T07:16:44.764Z,18.75
2022-09-05T07:19:27.158Z,18.72
2022-09-05T07:22:46.041Z,18.70
2022-09-05T07:25:19.341Z,18.77
2022-09-05T07:28:26.761Z,18.94
2022-09-05T07:30:51.025Z,19.06
2022-09-05T07:33:23.560Z,19.16
2022-09-05T07:35:53.170Z,19.16
2022-09-05T07:38:26.768Z,19.21
2022-09-05T07:41:23.013Z,19.32
2022-09-05T07:43:56.272Z,19.37
2022-09-05T07:46:28.077Z,19.42
2022-09-05T07:49:00.921Z,19.43
2022-09-05T07:56:46.939Z,19.54
2022-09-05T07:57:07.930Z,19.51
2022-09-05T07:57:30.306Z,19.65
2022-09-05T08:00:06.220Z,19.79
2022-09-05T08:02:34.852Z,19.81
2022-09-05T08:05:08.778Z,19.67
2022-09-05T08:07:47.250Z,19.71
2022-09-05T08:10:35.788Z,19.86
2022-09-05T08:13:23.450Z,20.05
2022-09-05T08:16:09.822Z,20.11
2022-09-05T08:18:45.837Z,20.10
2022-09-05T08:21:27.111Z,20.08
2022-09-05T08:24:12.885Z,20.29
2022-09-05T08:26:47.284Z,20.38
2022-09-05T08:29:28.172Z,20.61
2022-09-05T08:32:03.473Z,20.79
2022-09-05T08:34:44.521Z,20.69
2022-09-05T08:37:21.540Z,20.85
2022-09-05T08:40:09.979Z,20.90
2022-09-05T08:43:22.820Z,21.15
2022-09-05T08:46:39.916Z,21.14
2022-09-05T08:48:50.497Z,21.07
2022-09-05T08:51:28.305Z,21.06
2022-09-05T08:54:13.128Z,21.16
2022-09-05T08:56:51.069Z,20.99
2022-09-05T08:59:32.891Z,21.04
2022-09-05T09:02:47.304Z,21.29
2022-09-05T09:05:56.678Z,21.40
2022-09-05T09:08:22.251Z,21.46
2022-09-05T09:10:57.768Z,21.62
2022-09-05T09:13:52.395Z,21.73
2022-09-05T09:16:31.050Z,21.75
2022-09-05T09:19:18.410Z,21.84
2022-09-05T09:22:14.823Z,21.88
2022-09-05T09:24:47.042Z,21.92
2022-09-05T09:28:47.291Z,21.87
2022-09-05T09:30:41.843Z,21.92
2022-09-05T09:33:19.270Z,21.97
2022-09-05T09:36:07.914Z,21.94
2022-09-05T09:38:50.259Z,21.78
2022-09-05T09:41:39.542Z,21.75
2022-09-05T09:44:52.641Z,22.07
2022-09-05T09:47:38.863Z,22.10
2022-09-05T09:50:22.359Z,22.18
2022-09-05T09:53:29.382Z,22.00
2022-09-05T09:56:44.965Z,21.88
2022-09-05T09:59:36.326Z,22.02
2022-09-05T10:06:30.228Z,22.03
2022-09-05T10:10:39.521Z,21.88
2022-09-05T10:11:09.182Z,22.07
2022-09-05T10:12:53.358Z,22.38
2022-09-05T10:15:48.495Z,22.66
2022-09-05T10:18:54.594Z,23.33
2022-09-05T10:25:19.150Z,24.42
2022-09-05T10:28:07.828Z,25.08
2022-09-05T10:31:46.632Z,25.55
2022-09-05T10:35:10.732Z,25.67
2022-09-05T10:36:30.218Z,26.47
2022-09-05T10:39:16.307Z,26.42
2022-09-05T10:42:03.122Z,26.96
2022-09-05T10:44:40.534Z,26.98
2022-09-05T10:47:19.422Z,27.71
2022-09-05T10:49:51.713Z,27.29
2022-09-05T10:52:29.986Z,27.39
2022-09-05T10:55:22.823Z,27.68
2022-09-05T10:58:01.037Z,26.73
2022-09-05T11:02:27.526Z,26.07
2022-09-05T11:03:54.818Z,25.51
2022-09-05T11:06:31.374Z,25.22
2022-09-05T11:09:07.813Z,24.56
2022-09-05T11:11:46.236Z,24.15
2022-09-05T11:14:34.875Z,24.06
2022-09-05T11:17:11.592Z,23.77
2022-09-05T11:19:44.860Z,23.51
2022-09-05T11:22:23.971Z,23.87
2022-09-05T11:24:56.779Z,24.80
2022-09-05T11:27:33.905Z,25.65
2022-09-05T11:30:07.629Z,26.53
2022-09-05T11:36:11.773Z,26.88
2022-09-05T11:39:52.515Z,27.01
2022-09-05T11:40:08.920Z,27.55
2022-09-05T11:42:29.445Z,26.06
2022-09-05T11:45:15.167Z,26.48
2022-09-05T11:48:21.184Z,26.07
2022-09-05T11:51:26.026Z,25.86
2022-09-05T11:54:34.955Z,26.27
2022-09-05T11:57:34.561Z,26.15
2022-09-05T12:00:31.544Z,25.72
2022-09-05T12:03:58.776Z,25.29
2022-09-05T12:07:27.108Z,26.40
2022-09-05T12:10:43.448Z,27.08
2022-09-05T12:13:21.675Z,27.71
2022-09-05T12:16:08.197Z,27.69
2022-09-05T12:18:45.936Z,27.66
2022-09-05T12:21:27.500Z,27.16
2022-09-05T12:25:18.011Z,27.29
2022-09-05T12:27:41.008Z,27.66
2022-09-05T12:29:59.503Z,27.97
2022-09-05T12:35:18.273Z,28.61
2022-09-05T12:36:06.883Z,28.64
2022-09-05T12:40:28.817Z,28.40
2022-09-05T12:41:44.627Z,28.31
2022-09-05T12:44:44.521Z,29.06
2022-09-05T12:47:19.574Z,29.48
2022-09-05T12:50:03.383Z,29.97
2022-09-05T12:52:44.808Z,30.08
2022-09-05T12:55:26.110Z,30.17
2022-09-05T13:02:05.216Z,30.51
2022-09-05T13:03:02.746Z,30.24
2022-09-05T13:04:15.934Z,28.81
2022-09-05T13:06:41.723Z,28.46
2022-09-05T13:09:19.540Z,27.78
2022-09-05T13:14:48.561Z,27.22
2022-09-05T13:15:14.126Z,26.82
2022-09-05T13:17:47.316Z,27.61
2022-09-05T13:20:21.640Z,28.45
2022-09-05T13:22:54.531Z,28.63
2022-09-05T13:25:27.261Z,29.44
2022-09-05T13:28:02.453Z,29.70
2022-09-05T13:34:05.828Z,29.76
2022-09-05T13:38:16.416Z,29.53
2022-09-05T13:38:29.043Z,29.22
2022-09-05T13:39:14.489Z,29.74
2022-09-05T13:41:48.838Z,29.89
2022-09-05T13:44:26.267Z,29.45
2022-09-05T13:47:01.175Z,28.22
2022-09-05T13:49:35.219Z,27.74
2022-09-05T13:52:22.295Z,27.90
2022-09-05T13:55:04.056Z,28.57
2022-09-05T13:57:40.581Z,28.73
2022-09-05T14:00:44.563Z,28.80
2022-09-05T14:03:55.799Z,29.25
2022-09-05T14:07:44.014Z,29.52
2022-09-05T14:10:11.914Z,29.17
2022-09-05T14:12:44.007Z,29.00
2022-09-05T14:15:30.507Z,28.57
2022-09-05T14:18:11.593Z,28.72
2022-09-05T14:21:13.143Z,28.86
2022-09-05T14:23:55.928Z,29.23
2022-09-05T14:26:32.845Z,29.23
2022-09-05T14:29:19.754Z,29.20
2022-09-05T14:36:32.185Z,29.63
2022-09-05T14:37:54.125Z,28.54
2022-09-05T14:38:09.325Z,27.81
2022-09-05T14:41:06.941Z,27.05
2022-09-05T14:43:57.361Z,26.65
2022-09-05T14:46:59.995Z,26.43
2022-09-05T14:50:03.977Z,26.36
2022-09-05T14:52:35.576Z,25.97
2022-09-05T15:02:39.358Z,25.64
2022-09-05T15:02:50.647Z,25.61
2022-09-05T15:06:38.693Z,26.57
2022-09-05T15:12:14.157Z,26.66
2022-09-05T15:12:20.656Z,26.70
2022-09-05T15:15:00.931Z,26.56
2022-09-05T15:17:32.323Z,26.40
2022-09-05T15:20:07.455Z,26.25
2022-09-05T15:22:41.887Z,26.05
2022-09-05T15:25:21.678Z,26.46
2022-09-05T15:27:51.284Z,26.42
2022-09-05T15:30:22.502Z,26.19
2022-09-05T15:33:12.725Z,25.35
2022-09-05T15:35:44.106Z,24.95
2022-09-05T15:38:28.489Z,24.88
2022-09-05T15:41:13.588Z,24.73
2022-09-05T15:43:52.749Z,24.38
2022-09-05T15:46:30.932Z,24.28
2022-09-05T15:49:10.056Z,23.93
2022-09-05T15:51:46.096Z,23.77
2022-09-05T15:54:25.664Z,23.90
2022-09-05T15:57:08.993Z,24.39
2022-09-05T15:59:49.290Z,24.67
2022-09-05T16:02:20.867Z,25.00
2022-09-05T16:10:28.965Z,25.23
2022-09-05T16:10:31.185Z,24.92
2022-09-05T16:11:07.717Z,24.91
2022-09-05T16:13:45.839Z,24.40
2022-09-05T16:23:11.368Z,23.95
2022-09-05T16:23:26.367Z,23.80
2022-09-05T16:23:30.262Z,23.64
2022-09-05T16:25:04.426Z,23.33
2022-09-05T16:27:58.271Z,23.19
2022-09-05T16:30:30.774Z,23.02
2022-09-05T16:33:09.388Z,22.77
2022-09-05T16:35:42.848Z,22.67
2022-09-05T16:38:27.256Z,22.48
2022-09-05T16:41:14.105Z,22.33
2022-09-05T16:43:49.786Z,22.38
2022-09-05T16:46:22.795Z,22.34
2022-09-05T16:48:56.292Z,22.28
2022-09-05T16:51:37.571Z,22.17
2022-09-05T16:54:15.553Z,22.08
2022-09-05T16:56:48.265Z,21.97
2022-09-05T16:59:20.866Z,21.83
2022-09-05T17:02:07.194Z,21.72
2022-09-05T17:05:03.570Z,21.64
2022-09-05T17:07:45.116Z,21.69
2022-09-05T17:10:24.393Z,21.60
2022-09-05T17:12:53.191Z,21.61
2022-09-05T17:15:27.647Z,21.50
2022-09-05T17:18:22.705Z,21.42
2022-09-05T17:20:55.370Z,21.39
2022-09-05T17:27:17.697Z,21.31
2022-09-05T17:29:33.325Z,21.33
2022-09-05T17:32:41.050Z,21.08
2022-09-05T17:35:18.450Z,21.01
2022-09-05T17:38:19.413Z,20.88
2022-09-05T17:41:10.152Z,20.76
2022-09-05T17:43:41.439Z,20.73
2022-09-05T17:46:20.179Z,20.68
2022-09-05T17:49:18.290Z,20.65
2022-09-05T17:52:28.195Z,20.51
2022-09-05T17:54:57.540Z,20.36
2022-09-05T17:57:42.519Z,20.27
2022-09-05T18:00:45.479Z,20.29
2022-09-05T18:04:09.767Z,20.26
2022-09-05T18:06:52.861Z,20.22
2022-09-05T18:10:12.235Z,20.21
2022-09-05T18:16:12.221Z,20.16
2022-09-05T18:22:04.189Z,20.00
2022-09-05T18:24:40.212Z,20.01
2022-09-05T18:30:25.450Z,20.05
2022-09-05T18:33:54.502Z,19.99
2022-09-05T18:36:36.048Z,19.90
2022-09-05T18:39:37.184Z,19.88
2022-09-05T18:42:26.307Z,19.76
2022-09-05T18:45:03.458Z,19.64
2022-09-05T18:47:53.163Z,19.65
2022-09-05T18:50:32.125Z,19.55
2022-09-05T18:53:10.531Z,19.48
2022-09-05T18:56:13.325Z,19.48
2022-09-05T18:58:52.608Z,19.42
2022-09-05T19:01:37.379Z,19.30
2022-09-05T19:04:32.998Z,19.28
2022-09-05T19:07:08.012Z,19.28
2022-09-05T19:09:40.189Z,19.33
2022-09-05T19:12:35.011Z,19.28
2022-09-05T19:15:14.954Z,19.13
2022-09-05T19:17:47.494Z,19.18
2022-09-05T19:20:32.636Z,19.18
2022-09-05T19:23:09.679Z,19.13
2022-09-05T19:25:43.930Z,19.09
2022-09-05T19:36:46.873Z,18.98
2022-09-05T19:36:56.604Z,19.08
2022-09-05T19:37:06.615Z,18.84
2022-09-05T19:47:11.017Z,18.70
2022-09-05T19:47:47.154Z,18.57
2022-09-05T19:47:50.993Z,18.60
2022-09-05T19:48:26.298Z,18.53
2022-09-05T19:50:56.693Z,18.46
2022-09-05T19:53:25.408Z,18.48
2022-09-05T19:55:54.787Z,18.42
2022-09-05T19:58:25.215Z,18.37
2022-09-05T20:01:03.723Z,18.44
2022-09-05T20:03:37.164Z,18.34
2022-09-05T20:06:28.951Z,18.41
2022-09-05T20:09:15.684Z,18.44
2022-09-05T20:11:49.702Z,18.44
2022-09-05T20:14:22.768Z,18.45
2022-09-05T20:16:52.008Z,18.50
2022-09-05T20:19:29.892Z,18.50
2022-09-05T20:22:31.074Z,18.51
2022-09-05T20:24:54.177Z,18.54
2022-09-05T20:27:27.493Z,18.54
2022-09-05T20:30:01.084Z,18.47
2022-09-05T20:32:39.455Z,18.42
2022-09-05T20:37:58.609Z,18.37
2022-09-05T20:43:18.555Z,18.36
2022-09-05T20:43:19.748Z,18.27
2022-09-05T20:43:53.752Z,18.27
2022-09-05T20:48:49.000Z,18.20
2022-09-05T20:54:15.842Z,18.16
2022-09-05T20:54:19.905Z,18.23
2022-09-05T20:55:40.295Z,18.18
2022-09-05T20:58:09.522Z,18.18
2022-09-05T21:00:39.711Z,18.06
2022-09-05T21:03:09.402Z,18.00
2022-09-05T21:05:40.031Z,17.85
2022-09-05T21:08:32.492Z,17.76
2022-09-05T21:11:03.902Z,17.73
2022-09-05T21:13:33.926Z,17.70
2022-09-05T21:16:04.408Z,17.65
2022-09-05T21:18:34.674Z,17.64
2022-09-05T21:21:27.871Z,17.58
2022-09-05T21:24:16.099Z,17.54
2022-09-05T21:26:45.328Z,17.49
2022-09-05T21:29:17.658Z,17.50
2022-09-05T21:31:50.800Z,17.32
2022-09-05T21:34:28.104Z,17.30
2022-09-05T21:37:07.448Z,17.13
2022-09-05T21:39:58.537Z,17.12
2022-09-05T21:43:38.868Z,17.09
2022-09-05T21:47:41.219Z,17.04
2022-09-05T21:48:07.776Z,16.95
2022-09-05T21:50:42.485Z,16.93
2022-09-05T21:55:25.293Z,16.92
2022-09-05T21:59:20.626Z,17.01
2022-09-05T21:59:27.731Z,16.98
2022-09-05T22:01:58.199Z,16.86
2022-09-05T22:04:26.698Z,16.75
2022-09-05T22:06:58.324Z,16.78
2022-09-05T22:09:26.363Z,16.69
2022-09-05T22:11:54.408Z,16.71
2022-09-05T22:14:25.255Z,16.67
2022-09-05T22:16:55.933Z,16.67
2022-09-05T22:19:36.900Z,16.64
2022-09-05T22:22:16.479Z,16.66
2022-09-05T22:24:50.896Z,16.58
2022-09-05T22:27:20.657Z,16.65
2022-09-05T22:29:50.635Z,16.56
2022-09-05T22:32:33.806Z,16.48
2022-09-05T22:35:15.951Z,16.44
2022-09-05T22:38:00.861Z,16.44
2022-09-05T22:40:30.679Z,16.35
2022-09-05T22:42:59.615Z,16.43
2022-09-05T22:45:28.544Z,16.39
2022-09-05T22:47:56.799Z,16.32
2022-09-05T22:50:25.979Z,16.32
2022-09-05T22:52:55.431Z,16.32
2022-09-05T22:55:23.394Z,16.18
2022-09-05T22:57:51.344Z,16.22
2022-09-05T23:00:19.505Z,16.16
2022-09-05T23:02:52.201Z,16.13
2022-09-05T23:05:20.787Z,16.12
2022-09-05T23:07:48.743Z,16.06
2022-09-05T23:10:18.847Z,15.99
2022-09-05T23:12:47.044Z,15.92
2022-09-05T23:15:15.560Z,15.85
2022-09-05T23:17:43.847Z,15.73
2022-09-05T23:20:12.565Z,15.72
2022-09-05T23:22:40.527Z,15.71
2022-09-05T23:25:09.047Z,15.67
2022-09-05T23:27:39.288Z,15.62
2022-09-05T23:30:08.866Z,15.63
2022-09-05T23:32:36.789Z,15.56
2022-09-05T23:35:05.021Z,15.55
2022-09-05T23:37:33.007Z,15.46
2022-09-05T23:40:01.059Z,15.43
2022-09-05T23:42:29.075Z,15.35
2022-09-05T23:44:58.435Z,15.27
2022-09-05T23:47:27.680Z,15.34
2022-09-05T23:49:57.068Z,15.37
2022-09-05T23:52:25.086Z,15.42
2022-09-05T23:54:53.043Z,15.41
2022-09-05T23:57:23.068Z,15.37
2022-09-05T23:59:52.950Z,15.39
